Time;durP1;ratioP1;P1;durP2;ratioP2;P2;SDS_P1;SDS_P2;PMS_P1;PMS_P2;Temp;Humidity;BMP_temperature;BMP_pressure;BME280_temperature;BME280_humidity;BME280_pressure;Samples;Min_cycle;Max_cycle;Signal;HPM_P1;HPM_P2
2022/11/04 00:01:48;;;;;;;20.20;13.80;;;;;;;-143.84;80.42;45142.38;5090674;28;21042;-70
2022/11/04 00:04:17;;;;;;;21.47;13.97;;;;;;;-143.84;80.47;45184.25;5090528;28;20965;-70
2022/11/04 00:06:44;;;;;;;21.70;13.40;;;;;;;-143.84;79.91;45155.69;5090946;28;20440;-70
2022/11/04 00:09:16;;;;;;;16.87;12.70;;;;;;;-143.84;79.83;45148.09;5090421;28;20478;-70
2022/11/04 00:14:29;;;;;;;19.33;13.37;;;;;;;-143.84;79.95;45136.66;5091159;28;20429;-70
2022/11/04 00:30:47;;;;;;;19.87;14.30;;;;;;;-143.84;80.57;45136.66;5090832;28;20439;-70
2022/11/04 00:33:25;;;;;;;19.47;15.13;;;;;;;-143.84;81.13;45129.03;5081184;28;20484;-70
2022/11/04 00:35:53;;;;;;;20.67;14.37;;;;;;;-143.84;81.47;45132.84;5069940;28;20440;-70
2022/11/04 00:38:20;;;;;;;19.30;13.47;;;;;;;-143.84;81.44;45155.69;5070235;28;21021;-70
2022/11/04 00:40:49;;;;;;;18.53;13.73;;;;;;;-143.84;81.49;45146.19;5070462;28;20444;-70
2022/11/04 00:43:16;;;;;;;19.50;13.80;;;;;;;-143.84;81.24;45157.59;5070174;28;20441;-69
2022/11/04 00:45:44;;;;;;;18.80;14.63;;;;;;;-143.84;81.38;45146.19;5070072;28;21141;-70
2022/11/04 00:48:11;;;;;;;20.37;14.53;;;;;;;-143.84;81.30;45140.47;5070013;28;20448;-70
2022/11/04 00:50:38;;;;;;;17.67;13.23;;;;;;;-143.84;81.42;45125.22;5069926;28;20477;-69
2022/11/04 00:53:05;;;;;;;18.40;13.77;;;;;;;-143.84;82.04;45132.84;5069891;28;21060;-70
2022/11/04 00:55:32;;;;;;;17.97;13.90;;;;;;;-143.84;81.72;45136.66;5070026;28;20436;-70
2022/11/04 00:58:01;;;;;;;18.00;14.17;;;;;;;-143.84;82.81;45155.69;5069905;28;20496;-70
2022/11/04 01:00:28;;;;;;;18.20;13.97;;;;;;;-143.84;83.17;45144.28;5069857;28;20528;-70
2022/11/04 01:02:58;;;;;;;18.53;13.90;;;;;;;-143.84;83.14;45157.59;5069889;28;20506;-70
2022/11/04 01:05:26;;;;;;;20.57;15.13;;;;;;;-143.84;83.08;45167.13;5069644;28;20439;-70
2022/11/04 01:07:53;;;;;;;19.20;14.67;;;;;;;-143.84;83.75;45129.03;5069944;28;20448;-70
2022/11/04 01:10:20;;;;;;;17.90;14.13;;;;;;;-143.84;84.18;45146.19;5069801;28;20491;-70
2022/11/04 01:12:47;;;;;;;21.03;15.00;;;;;;;-143.84;84.36;45159.50;5068915;28;20457;-70
2022/11/04 01:15:16;;;;;;;18.80;15.00;;;;;;;-143.84;84.63;45132.84;5068764;28;20443;-70
2022/11/04 01:17:43;;;;;;;18.90;14.07;;;;;;;-143.84;84.31;45163.31;5069442;28;20520;-70
2022/11/04 01:20:12;;;;;;;20.17;14.90;;;;;;;-143.84;84.02;45157.59;5069582;28;20441;-70
2022/11/04 01:22:39;;;;;;;18.77;14.07;;;;;;;-143.84;83.92;45151.91;5069496;28;20528;-70
2022/11/04 01:25:08;;;;;;;17.83;13.13;;;;;;;-143.84;83.35;45146.19;5069181;28;20452;-70
2022/11/04 01:27:35;;;;;;;24.80;14.17;;;;;;;-143.84;83.27;45151.91;5069282;28;20441;-70
2022/11/04 01:30:02;;;;;;;20.17;13.83;;;;;;;-143.84;83.60;45144.28;5068519;28;20483;-70
2022/11/04 01:32:31;;;;;;;21.77;15.00;;;;;;;-143.84;84.13;45146.19;5068894;28;20460;-70
2022/11/04 01:34:58;;;;;;;20.23;14.43;;;;;;;-143.84;83.87;45159.50;5069394;28;20883;-69
2022/11/04 01:37:25;;;;;;;24.53;13.13;;;;;;;-143.84;84.00;45146.19;5069195;28;20436;-70
2022/11/04 01:39:55;;;;;;;15.50;12.97;;;;;;;-143.84;83.99;45151.91;5069093;28;20449;-70
2022/11/04 01:42:23;;;;;;;17.53;13.30;;;;;;;-143.84;84.23;45151.91;5069015;28;20445;-70
2022/11/04 01:44:58;;;;;;;19.13;13.93;;;;;;;-143.84;83.86;45125.22;5068879;28;20795;-70
2022/11/04 01:47:30;;;;;;;21.03;14.83;;;;;;;-143.84;84.03;45140.47;5069303;28;20539;-70
2022/11/04 01:50:03;;;;;;;23.43;13.67;;;;;;;-143.84;84.80;45155.69;5068216;28;21229;-70
2022/11/04 01:52:35;;;;;;;16.67;13.33;;;;;;;-143.84;84.61;45155.69;5068500;28;20459;-70
2022/11/04 01:55:10;;;;;;;20.03;14.50;;;;;;;-143.84;84.69;45151.91;5068699;28;20442;-70
2022/11/04 01:57:40;;;;;;;19.57;14.87;;;;;;;-143.84;85.19;45148.09;5069226;28;20447;-68
2022/11/04 02:00:11;;;;;;;19.50;14.60;;;;;;;-143.84;85.74;45138.56;5068639;28;20516;-68
2022/11/04 02:02:46;;;;;;;22.13;15.60;;;;;;;-143.84;86.58;45161.41;5068859;28;20452;-68
2022/11/04 02:05:15;;;;;;;18.43;13.73;;;;;;;-143.84;86.57;45140.47;5068695;28;20438;-68
2022/11/04 02:07:42;;;;;;;27.03;16.17;;;;;;;-143.84;86.75;45174.75;5068735;28;20485;-68
2022/11/04 02:10:11;;;;;;;18.83;15.40;;;;;;;-143.84;86.51;45148.09;5068661;28;20541;-68
2022/11/04 02:12:49;;;;;;;23.47;15.17;;;;;;;-143.84;86.28;45148.09;5068815;28;20435;-68
2022/11/04 02:15:20;;;;;;;24.23;15.00;;;;;;;-143.84;85.90;45144.28;5069126;28;20814;-68
2022/11/04 02:18:05;;;;;;;21.67;15.27;;;;;;;-143.84;85.84;45176.66;5068679;28;21019;-68
2022/11/04 02:21:00;;;;;;;17.90;14.53;;;;;;;-143.84;85.19;45148.09;5068717;28;20446;-68
2022/11/04 02:23:52;;;;;;;19.83;14.30;;;;;;;-143.84;84.77;45167.13;5068773;28;20444;-68
2022/11/04 02:26:55;;;;;;;21.30;14.07;;;;;;;-143.84;84.69;45119.53;5069018;28;20444;-68
2022/11/04 02:29:34;;;;;;;18.70;14.60;;;;;;;-143.84;84.75;45161.41;5068582;28;20490;-68
2022/11/04 02:32:11;;;;;;;17.47;14.47;;;;;;;-143.84;85.97;45150.00;5068418;28;20438;-68
2022/11/04 02:34:49;;;;;;;22.33;16.50;;;;;;;-143.84;86.72;45129.03;5068293;28;21066;-68
2022/11/04 02:37:25;;;;;;;28.43;15.77;;;;;;;-143.84;87.02;45159.50;5068616;28;20439;-68
2022/11/04 02:39:59;;;;;;;18.90;14.77;;;;;;;-143.84;87.41;45142.38;5068462;28;20440;-68
2022/11/04 02:42:32;;;;;;;22.40;15.60;;;;;;;-143.84;87.56;45169.03;5070654;28;20455;-68
2022/11/04 02:45:13;;;;;;;22.43;15.93;;;;;;;-143.84;88.13;45148.09;5072284;28;20440;-68
2022/11/04 02:47:45;;;;;;;24.13;14.97;;;;;;;-143.84;88.50;45134.75;5072623;28;20459;-68
2022/11/04 02:50:21;;;;;;;21.23;14.10;;;;;;;-143.84;88.81;45155.69;5072512;28;20491;-68
2022/11/04 02:52:56;;;;;;;22.00;15.70;;;;;;;-143.84;89.29;45132.84;5072304;28;20534;-68
2022/11/04 02:55:26;;;;;;;24.60;15.33;;;;;;;-143.84;89.41;45148.09;5072410;28;20933;-68
2022/11/04 02:57:56;;;;;;;21.00;15.10;;;;;;;-143.84;89.44;45150.00;5072378;28;20800;-68
2022/11/04 03:00:25;;;;;;;22.90;15.47;;;;;;;-143.84;89.64;45142.38;5072515;28;20441;-69
2022/11/04 03:02:57;;;;;;;18.23;14.00;;;;;;;-143.84;89.42;45172.84;5071810;28;20444;-70
2022/11/04 03:05:28;;;;;;;23.23;15.57;;;;;;;-143.84;89.35;45155.69;5071523;28;20435;-70
2022/11/04 03:08:00;;;;;;;16.83;13.47;;;;;;;-143.84;89.47;45155.69;5071512;28;20506;-70
2022/11/04 03:10:34;;;;;;;22.83;15.70;;;;;;;-143.84;89.53;45125.22;5071955;28;20993;-70
2022/11/04 03:13:05;;;;;;;21.93;15.60;;;;;;;-143.84;89.17;45142.38;5072030;28;20437;-70
2022/11/04 03:15:38;;;;;;;17.50;14.47;;;;;;;-143.84;88.76;45176.66;5071646;28;20473;-70
2022/11/04 03:18:15;;;;;;;18.17;15.00;;;;;;;-143.84;88.55;45146.19;5072283;28;20443;-68
2022/11/04 03:20:45;;;;;;;24.23;16.20;;;;;;;-143.84;88.38;45148.09;5072266;28;20461;-69
2022/11/04 03:23:13;;;;;;;21.27;15.00;;;;;;;-143.84;87.93;45148.09;5071592;28;20437;-70
2022/11/04 03:25:44;;;;;;;23.27;15.93;;;;;;;-143.84;87.92;45155.69;5071500;28;20943;-70
2022/11/04 03:28:26;;;;;;;16.10;13.30;;;;;;;-143.84;87.56;45140.47;5070983;28;20980;-69
2022/11/04 03:30:58;;;;;;;24.43;14.43;;;;;;;-143.84;87.11;45151.91;5070826;28;20487;-70
2022/11/04 03:33:33;;;;;;;22.13;14.97;;;;;;;-143.84;87.10;45142.38;5070905;28;20525;-70
2022/11/04 03:36:01;;;;;;;25.37;15.57;;;;;;;-143.84;87.28;45140.47;5070880;28;21078;-70
2022/11/04 03:38:29;;;;;;;20.67;15.83;;;;;;;-143.84;87.94;45157.59;5070825;28;20447;-69
2022/11/04 03:40:59;;;;;;;19.93;13.97;;;;;;;-143.84;87.93;45153.81;5070895;28;20501;-70
2022/11/04 03:43:29;;;;;;;21.63;13.50;;;;;;;-143.84;88.37;45157.59;5071299;28;20501;-70
2022/11/04 03:45:57;;;;;;;18.17;14.67;;;;;;;-143.84;89.01;45163.31;5071171;28;20503;-69
2022/11/04 03:48:25;;;;;;;26.23;15.60;;;;;;;-143.84;88.88;45144.28;5071428;28;20526;-70
2022/11/04 03:50:52;;;;;;;24.83;15.80;;;;;;;-143.84;89.08;45146.19;5071350;28;20495;-70
2022/11/04 03:53:22;;;;;;;19.90;14.90;;;;;;;-143.84;89.23;45151.91;5070763;28;20456;-70
2022/11/04 03:56:06;;;;;;;21.97;14.20;;;;;;;-143.84;89.64;45167.13;5070775;28;20943;-70
2022/11/04 03:58:42;;;;;;;24.43;14.73;;;;;;;-143.84;89.84;45163.31;5071423;28;20453;-70
2022/11/04 04:01:25;;;;;;;24.90;16.00;;;;;;;-143.84;90.05;45155.69;5071225;28;20444;-70
2022/11/04 04:03:59;;;;;;;20.53;15.63;;;;;;;-143.84;90.46;45165.22;5070942;28;20509;-70
2022/11/04 04:06:31;;;;;;;19.57;15.67;;;;;;;-143.84;90.59;45178.56;5071118;28;20502;-70
2022/11/04 04:09:03;;;;;;;21.20;15.33;;;;;;;-143.84;90.63;45157.59;5070293;28;20975;-70
2022/11/04 04:11:41;;;;;;;23.60;15.13;;;;;;;-143.84;90.46;45155.69;5070704;28;20490;-70
2022/11/04 04:14:38;;;;;;;19.67;15.60;;;;;;;-143.84;90.85;45140.47;5070976;28;20456;-70
2022/11/04 04:17:12;;;;;;;22.30;15.80;;;;;;;-143.84;91.23;45169.03;5071065;28;20460;-70
2022/11/04 04:19:42;;;;;;;24.30;16.57;;;;;;;-143.84;91.08;45193.78;5070609;28;20863;-70
2022/11/04 04:22:15;;;;;;;21.37;15.90;;;;;;;-143.84;91.27;45150.00;5071201;28;20480;-70
2022/11/04 04:27:33;;;;;;;22.23;15.10;;;;;;;-143.84;90.72;45138.56;5070759;28;20490;-70
2022/11/04 04:30:04;;;;;;;20.60;15.57;;;;;;;-143.84;90.60;45140.47;5070314;28;20487;-70
2022/11/04 04:32:38;;;;;;;28.90;17.17;;;;;;;-143.84;90.61;45214.72;5070156;28;20452;-70
2022/11/04 04:37:54;;;;;;;23.27;15.53;;;;;;;-143.84;90.22;45140.47;5070206;28;20482;-70
2022/11/04 04:46:02;;;;;;;21.07;14.27;;;;;;;-143.84;89.68;45172.84;5070256;28;20432;-70
2022/11/04 04:48:30;;;;;;;19.20;14.90;;;;;;;-143.84;90.44;45151.91;5069952;28;20469;-70
2022/11/04 04:51:00;;;;;;;20.40;14.87;;;;;;;-143.84;90.61;45163.31;5070108;28;20508;-70
2022/11/04 04:53:29;;;;;;;25.83;15.70;;;;;;;-143.84;92.07;45155.69;5069739;28;20453;-70
2022/11/04 04:55:56;;;;;;;31.23;16.07;;;;;;;-143.84;92.03;45186.16;5069958;28;20534;-70
2022/11/04 04:58:23;;;;;;;19.07;15.40;;;;;;;-143.84;92.20;45159.50;5069840;28;20501;-70
2022/11/04 05:00:53;;;;;;;24.00;16.23;;;;;;;-143.84;92.24;45167.13;5069880;28;20937;-70
2022/11/04 05:03:20;;;;;;;24.00;16.67;;;;;;;-143.84;92.27;45161.41;5069854;28;20512;-70
2022/11/04 05:05:48;;;;;;;23.40;16.00;;;;;;;-143.84;92.39;45189.97;5069123;28;20444;-70
2022/11/04 05:08:16;;;;;;;20.17;14.97;;;;;;;-143.84;92.37;45150.00;5069460;28;20448;-70
2022/11/04 05:10:43;;;;;;;22.73;14.97;;;;;;;-143.84;92.75;45178.56;5069418;28;20476;-70
2022/11/04 05:13:28;;;;;;;23.73;16.67;;;;;;;-143.84;92.89;45174.75;5070047;28;20452;-70
2022/11/04 05:15:56;;;;;;;21.40;17.03;;;;;;;-143.84;92.63;45134.75;5069635;28;20953;-70
2022/11/04 05:18:23;;;;;;;21.57;16.67;;;;;;;-143.84;92.57;45153.81;5069525;28;21017;-70
2022/11/04 05:20:52;;;;;;;20.90;15.33;;;;;;;-143.84;92.57;45138.56;5069485;28;20808;-70
2022/11/04 05:23:19;;;;;;;25.47;17.90;;;;;;;-143.84;92.49;45172.84;5069372;28;20441;-72
2022/11/04 05:25:46;;;;;;;20.40;15.43;;;;;;;-143.84;92.65;45193.78;5068717;28;20456;-70
2022/11/04 05:28:13;;;;;;;26.23;16.87;;;;;;;-143.84;92.44;45163.31;5069104;28;20451;-70
2022/11/04 05:30:40;;;;;;;26.80;17.33;;;;;;;-143.84;92.35;45176.66;5068931;28;20480;-70
2022/11/04 05:33:08;;;;;;;20.57;15.87;;;;;;;-143.84;92.32;45153.81;5076480;28;20500;-70
2022/11/04 05:35:35;;;;;;;27.87;17.33;;;;;;;-143.84;92.32;45155.69;5089164;28;20443;-69
2022/11/04 05:38:03;;;;;;;23.30;15.90;;;;;;;-143.84;92.00;45157.59;5089704;28;20452;-69
2022/11/04 05:40:30;;;;;;;28.90;17.37;;;;;;;-143.84;92.12;45142.38;5089988;28;20447;-70
2022/11/04 05:42:59;;;;;;;26.43;17.10;;;;;;;-143.84;91.93;45159.50;5088824;28;20500;-71
2022/11/04 05:45:26;;;;;;;30.00;18.30;;;;;;;-143.84;91.75;45142.38;5088988;28;20858;-70
2022/11/04 05:48:00;;;;;;;24.80;16.40;;;;;;;-143.84;91.86;45167.13;5088758;28;20842;-70
2022/11/04 05:50:28;;;;;;;33.17;16.20;;;;;;;-143.84;91.94;45157.59;5088829;28;20506;-71
2022/11/04 05:52:57;;;;;;;47.57;16.60;;;;;;;-143.84;91.92;45159.50;5089332;28;20514;-69
2022/11/04 05:55:26;;;;;;;23.83;15.40;;;;;;;-143.84;91.82;45142.38;5089097;28;20957;-69
2022/11/04 05:57:53;;;;;;;18.80;15.43;;;;;;;-143.84;91.87;45155.69;5088288;28;20478;-69
2022/11/04 06:00:21;;;;;;;20.10;14.97;;;;;;;-143.84;91.92;45161.41;5089091;28;20519;-69
2022/11/04 06:02:48;;;;;;;27.80;14.77;;;;;;;-143.84;91.97;45153.81;5070990;28;20439;-69
2022/11/04 06:05:15;;;;;;;23.43;15.50;;;;;;;-143.84;91.52;45169.03;5088965;28;20446;-69
2022/11/04 06:07:42;;;;;;;21.80;15.30;;;;;;;-143.84;91.43;45153.81;5070961;28;20431;-69
2022/11/04 06:10:10;;;;;;;24.53;15.00;;;;;;;-143.84;91.10;45129.03;5088780;28;20484;-69
2022/11/04 06:12:39;;;;;;;20.17;13.60;;;;;;;-143.84;91.49;45142.38;5089318;28;20810;-69
2022/11/04 06:15:07;;;;;;;23.83;16.00;;;;;;;-143.84;91.16;45129.03;5088851;28;20440;-69
2022/11/04 06:17:34;;;;;;;23.93;15.63;;;;;;;-143.84;90.53;45159.50;5088662;28;20444;-69
2022/11/04 06:20:01;;;;;;;24.67;14.50;;;;;;;-143.84;90.22;45132.84;5089097;28;20514;-69
2022/11/04 06:22:28;;;;;;;16.60;13.80;;;;;;;-143.84;88.79;45125.22;5088679;28;20439;-69
2022/11/04 06:24:55;;;;;;;23.57;13.83;;;;;;;-143.84;87.96;45157.59;5088719;28;20436;-69
2022/11/04 06:27:23;;;;;;;16.47;13.87;;;;;;;-143.84;86.99;45125.22;5088762;28;20498;-69
2022/11/04 06:29:52;;;;;;;16.87;12.27;;;;;;;-143.84;87.07;45134.75;5070879;28;20445;-69
2022/11/04 06:32:19;;;;;;;22.20;12.97;;;;;;;-143.84;87.15;45167.13;5088707;28;20486;-70
2022/11/04 06:34:47;;;;;;;18.73;12.30;;;;;;;-143.84;85.79;45142.38;5088889;28;20446;-69
2022/11/04 06:37:14;;;;;;;16.53;13.17;;;;;;;-143.84;85.63;45146.19;5088782;28;20445;-69
2022/11/04 06:39:41;;;;;;;18.57;13.10;;;;;;;-143.84;86.10;45144.28;5088700;28;20523;-69
2022/11/04 06:42:08;;;;;;;15.20;11.97;;;;;;;-143.84;85.95;45150.00;5088834;28;20803;-69
2022/11/04 06:44:35;;;;;;;17.83;12.60;;;;;;;-143.84;85.83;45151.91;5088569;28;20479;-69
2022/11/04 06:47:04;;;;;;;16.70;12.27;;;;;;;-143.84;85.50;45144.28;5088673;28;20440;-69
2022/11/04 06:49:31;;;;;;;22.57;12.33;;;;;;;-143.84;83.45;45130.94;5088724;28;20444;-69
2022/11/04 06:51:59;;;;;;;16.77;12.30;;;;;;;-143.84;83.67;45148.09;5088575;28;20510;-69
2022/11/04 06:54:27;;;;;;;16.37;12.83;;;;;;;-143.84;84.41;45129.03;5088549;28;20470;-69
2022/11/04 06:56:54;;;;;;;21.07;12.13;;;;;;;-143.84;82.88;45129.03;5088415;28;20495;-69
2022/11/04 06:59:22;;;;;;;19.07;12.63;;;;;;;-143.84;82.34;45132.84;5088249;28;20437;-69
2022/11/04 07:01:50;;;;;;;16.67;11.50;;;;;;;-143.84;82.34;45127.13;5073361;28;20455;-69
2022/11/04 07:04:19;;;;;;;15.87;11.83;;;;;;;-143.84;82.09;45146.19;5068005;28;21140;-69
2022/11/04 07:06:46;;;;;;;18.53;11.70;;;;;;;-143.84;80.36;45085.25;5068219;28;20457;-69
2022/11/04 07:09:15;;;;;;;19.30;11.07;;;;;;;-143.84;78.69;45127.13;5068333;28;20874;-69
2022/11/04 07:11:43;;;;;;;12.47;10.00;;;;;;;-143.84;79.17;45106.19;5067900;28;20491;-69
2022/11/04 07:14:11;;;;;;;13.90;10.00;;;;;;;-143.84;78.11;45117.63;5067415;28;20525;-69
2022/11/04 07:16:38;;;;;;;15.83;10.43;;;;;;;-143.84;78.38;45132.84;5068042;28;20529;-69
2022/11/04 07:19:05;;;;;;;13.80;9.50;;;;;;;-143.84;76.77;45129.03;5067766;28;20498;-68
2022/11/04 07:21:35;;;;;;;15.13;11.33;;;;;;;-143.84;77.16;45136.66;5067813;28;20969;-68
2022/11/04 07:24:02;;;;;;;15.93;10.50;;;;;;;-143.84;77.54;45138.56;5067998;28;20445;-68
2022/11/04 07:26:30;;;;;;;13.33;9.20;;;;;;;-143.84;75.58;45123.34;5068330;28;20473;-68
2022/11/04 07:28:58;;;;;;;13.50;10.50;;;;;;;-143.84;76.05;45125.22;5070821;28;20452;-68
2022/11/04 07:31:26;;;;;;;11.10;8.80;;;;;;;-143.84;74.38;45136.66;5071579;28;20475;-68
2022/11/04 07:33:53;;;;;;;11.93;9.20;;;;;;;-143.84;74.09;45125.22;5071353;28;21166;-68
2022/11/04 07:36:21;;;;;;;12.30;9.17;;;;;;;-143.84;73.49;45129.03;5071475;28;20475;-68
2022/11/04 07:38:50;;;;;;;15.37;9.17;;;;;;;-143.84;73.33;45121.44;5071421;28;20866;-68
2022/11/04 07:41:18;;;;;;;33.07;8.73;;;;;;;-143.84;73.20;45127.13;5071444;28;20827;-68
2022/11/04 07:43:49;;;;;;;14.10;9.77;;;;;;;-143.84;72.96;45132.84;5071512;28;20437;-68
2022/11/04 07:46:18;;;;;;;10.97;9.00;;;;;;;-143.84;73.83;45144.28;5070807;28;20574;-67
2022/11/04 07:48:46;;;;;;;15.77;8.93;;;;;;;-143.84;73.13;45110.00;5070953;28;20483;-67
2022/11/04 07:51:19;;;;;;;17.53;8.63;;;;;;;-143.84;72.31;45117.63;5071191;28;20490;-68
2022/11/04 07:53:47;;;;;;;13.03;9.63;;;;;;;-143.84;72.45;45096.66;5071448;28;20502;-69
2022/11/04 07:56:15;;;;;;;13.40;9.87;;;;;;;-143.84;71.79;45123.34;5071155;28;20456;-69
2022/11/04 07:58:43;;;;;;;10.83;9.00;;;;;;;-143.84;71.37;45129.03;5071171;28;20445;-69
2022/11/04 08:01:12;;;;;;;22.33;9.90;;;;;;;-143.84;70.62;45119.53;5070253;28;20453;-69
2022/11/04 08:03:40;;;;;;;16.20;8.47;;;;;;;-143.84;71.15;45117.63;5070528;28;20969;-69
2022/11/04 08:06:09;;;;;;;20.60;9.40;;;;;;;-143.84;71.23;45096.66;5070662;28;20444;-69
2022/11/04 08:08:37;;;;;;;13.43;9.47;;;;;;;-143.84;70.18;45115.72;5071096;28;20449;-69
2022/11/04 08:11:07;;;;;;;9.40;8.17;;;;;;;-143.84;69.27;45096.66;5071039;28;21086;-69
2022/11/04 08:13:37;;;;;;;9.67;8.30;;;;;;;-143.84;67.04;45115.72;5070807;28;20452;-69
2022/11/04 08:16:06;;;;;;;17.50;8.70;;;;;;;-143.84;67.75;45136.66;5070744;28;20452;-69
2022/11/04 08:18:34;;;;;;;11.40;7.77;;;;;;;-143.84;68.45;45096.66;5070702;28;20429;-69
2022/11/04 08:21:03;;;;;;;21.53;8.77;;;;;;;-143.84;67.51;45100.47;5070722;28;20441;-69
2022/11/04 08:23:31;;;;;;;12.63;8.53;;;;;;;-143.84;68.36;45108.09;5070554;28;20449;-69
2022/11/04 08:25:58;;;;;;;9.63;8.63;;;;;;;-143.84;67.51;45142.38;5070737;28;20448;-69
2022/11/04 08:28:26;;;;;;;11.57;7.57;;;;;;;-143.84;67.13;45110.00;5070592;28;20494;-69
2022/11/04 08:30:57;;;;;;;10.47;7.77;;;;;;;-143.84;65.88;45104.28;5070282;28;21113;-69
2022/11/04 08:33:25;;;;;;;12.87;8.53;;;;;;;-143.84;65.98;45117.63;5070367;28;20476;-69
2022/11/04 08:35:53;;;;;;;14.40;8.20;;;;;;;-143.84;66.22;45090.97;5070401;28;20453;-69
2022/11/04 08:38:20;;;;;;;17.00;8.43;;;;;;;-143.84;66.72;45121.44;5070423;28;20441;-71
2022/11/04 08:40:48;;;;;;;10.60;8.40;;;;;;;-143.84;67.78;45140.47;5069240;28;20448;-71
2022/11/04 08:43:15;;;;;;;9.60;8.00;;;;;;;-143.84;67.03;45087.16;5069843;28;20440;-71
2022/11/04 08:45:44;;;;;;;10.17;8.50;;;;;;;-143.84;65.81;45117.63;5070791;28;20460;-71
2022/11/04 08:48:14;;;;;;;15.23;8.13;;;;;;;-143.84;66.50;45106.19;5070108;28;20432;-71
2022/11/04 08:50:42;;;;;;;9.60;8.10;;;;;;;-143.84;66.12;45130.94;5070420;28;20546;-71
2022/11/04 08:53:10;;;;;;;15.33;7.20;;;;;;;-143.84;64.92;45092.88;5070047;28;20467;-71
2022/11/04 08:55:37;;;;;;;13.43;6.80;;;;;;;-143.84;65.42;45115.72;5069758;28;20452;-71
2022/11/04 08:58:04;;;;;;;9.70;6.87;;;;;;;-143.84;64.38;45117.63;5069825;28;20451;-71
2022/11/04 09:00:31;;;;;;;12.73;7.20;;;;;;;-143.84;64.43;45115.72;5069571;28;20527;-71
2022/11/04 09:02:59;;;;;;;10.30;7.57;;;;;;;-143.84;65.59;45092.88;5069313;28;20444;-71
2022/11/04 09:05:28;;;;;;;17.77;8.13;;;;;;;-143.84;66.51;45106.19;5069827;28;20441;-71
2022/11/04 09:07:55;;;;;;;10.37;7.37;;;;;;;-143.84;65.25;45117.63;5069883;28;20958;-71
2022/11/04 09:10:22;;;;;;;9.07;7.20;;;;;;;-143.84;63.89;45087.16;5069686;28;20950;-70
2022/11/04 09:12:49;;;;;;;11.07;7.97;;;;;;;-143.84;64.02;45106.19;5069778;28;20480;-71
2022/11/04 09:15:18;;;;;;;18.47;6.67;;;;;;;-143.84;64.07;45104.28;5069689;28;20454;-71
2022/11/04 09:17:45;;;;;;;13.77;8.50;;;;;;;-143.84;65.72;45090.97;5070156;28;20449;-67
2022/11/04 09:20:12;;;;;;;9.20;6.27;;;;;;;-143.84;66.59;45117.63;5069763;28;20494;-67
2022/11/04 09:22:41;;;;;;;13.53;7.30;;;;;;;-143.84;67.83;45117.63;5069916;28;20544;-67
2022/11/04 09:25:09;;;;;;;12.83;8.60;;;;;;;-143.84;67.21;45121.44;5069681;28;20813;-68
2022/11/04 09:27:36;;;;;;;11.90;8.30;;;;;;;-143.84;68.09;45129.03;5069786;28;20441;-67
2022/11/04 09:30:04;;;;;;;14.07;9.20;;;;;;;-143.84;69.89;45115.72;5069537;28;20441;-67
2022/11/04 09:32:32;;;;;;;13.93;8.73;;;;;;;-143.84;69.28;45127.13;5069433;28;20509;-67
2022/11/04 09:34:59;;;;;;;13.67;8.70;;;;;;;-143.84;69.62;45104.28;5069601;28;20437;-67
2022/11/04 09:37:26;;;;;;;13.50;8.83;;;;;;;-143.84;70.61;45100.47;5069217;28;20997;-67
2022/11/04 09:39:55;;;;;;;14.27;9.30;;;;;;;-143.84;70.42;45123.34;5069958;28;20436;-67
2022/11/04 09:42:38;;;;;;;12.20;8.97;;;;;;;-143.84;71.32;45119.53;5069231;28;20449;-67
2022/11/04 09:45:11;;;;;;;11.60;9.23;;;;;;;-143.84;71.46;45159.50;5069370;28;20439;-67
2022/11/04 09:47:41;;;;;;;21.90;8.77;;;;;;;-143.84;71.50;45104.28;5069302;28;20445;-67
2022/11/04 09:50:15;;;;;;;21.67;9.40;;;;;;;-143.84;72.11;45140.47;5068812;28;20456;-68
2022/11/04 09:52:49;;;;;;;16.77;9.10;;;;;;;-143.84;71.85;45132.84;5069201;28;20494;-67
2022/11/04 09:55:24;;;;;;;17.70;9.60;;;;;;;-143.84;72.44;45119.53;5069044;28;20466;-67
2022/11/04 09:57:54;;;;;;;17.00;8.63;;;;;;;-143.84;72.05;45127.13;5069049;28;20448;-67
2022/11/04 10:00:22;;;;;;;24.37;9.30;;;;;;;-143.84;70.80;45129.03;5068909;28;20449;-67
2022/11/04 10:03:02;;;;;;;22.70;10.37;;;;;;;-143.84;71.79;45117.63;5068662;28;20453;-68
2022/11/04 10:05:43;;;;;;;27.03;10.47;;;;;;;-143.84;70.50;45104.28;5068648;28;20467;-68
2022/11/04 10:08:47;;;;;;;21.40;10.70;;;;;;;-143.84;70.63;45129.03;5069325;28;20446;-67
2022/11/04 10:11:22;;;;;;;15.40;8.83;;;;;;;-143.84;69.77;45106.19;5068861;28;20830;-67
2022/11/04 10:14:18;;;;;;;13.37;9.27;;;;;;;-143.84;71.59;45104.28;5069039;28;20448;-67
2022/11/04 10:16:58;;;;;;;13.70;10.03;;;;;;;-143.84;72.30;45089.06;5068257;28;20505;-67
2022/11/04 10:19:43;;;;;;;21.00;9.47;;;;;;;-143.84;71.93;45121.44;5068279;28;20848;-67
2022/11/04 10:22:20;;;;;;;22.00;13.60;;;;;;;-143.84;72.95;45094.78;5068196;28;20444;-67
2022/11/04 10:24:54;;;;;;;17.93;9.87;;;;;;;-143.84;72.94;45129.03;5068610;28;20455;-67
2022/11/04 10:27:27;;;;;;;15.47;9.67;;;;;;;-143.84;72.32;45136.66;5068636;28;20446;-67
2022/11/04 10:30:00;;;;;;;14.93;9.23;;;;;;;-143.84;71.79;45106.19;5069126;28;20449;-67
2022/11/04 10:32:33;;;;;;;20.13;10.90;;;;;;;-143.84;72.36;45121.44;5068432;28;20480;-67
2022/11/04 10:35:05;;;;;;;16.77;9.43;;;;;;;-143.84;72.87;45117.63;5068567;28;20444;-67
2022/11/04 10:37:32;;;;;;;17.13;9.80;;;;;;;-143.84;72.07;45132.84;5068694;28;20497;-67
2022/11/04 10:40:07;;;;;;;17.27;9.80;;;;;;;-143.84;72.15;45129.03;5068598;28;20440;-67
2022/11/04 10:42:36;;;;;;;15.30;10.20;;;;;;;-143.84;72.95;45129.03;5069684;28;20951;-68
2022/11/04 10:45:04;;;;;;;12.17;9.20;;;;;;;-143.84;73.62;45098.56;5070583;28;20449;-69
2022/11/04 10:47:40;;;;;;;20.63;11.30;;;;;;;-143.84;73.48;45127.13;5070101;28;21162;-70
2022/11/04 10:50:24;;;;;;;19.03;9.90;;;;;;;-143.84;70.83;45129.03;5069647;28;21003;-69
2022/11/04 10:52:54;;;;;;;14.70;9.97;;;;;;;-143.84;70.89;45102.38;5070252;28;20477;-69
2022/11/04 10:55:34;;;;;;;17.27;10.83;;;;;;;-143.84;72.24;45129.03;5069777;28;20444;-69
2022/11/04 10:58:03;;;;;;;17.00;10.33;;;;;;;-143.84;73.33;45113.81;5070313;28;20853;-69
2022/11/04 11:00:38;;;;;;;21.33;10.47;;;;;;;-143.84;75.09;45113.81;5070089;28;20449;-67
2022/11/04 11:03:23;;;;;;;15.20;9.63;;;;;;;-143.84;75.24;45130.94;5070081;28;20451;-67
2022/11/04 11:05:52;;;;;;;14.03;9.53;;;;;;;-143.84;77.26;45117.63;5072353;28;20527;-68
2022/11/04 11:08:31;;;;;;;15.10;9.97;;;;;;;-143.84;77.82;45125.22;5072070;28;20451;-67
2022/11/04 11:10:58;;;;;;;19.53;11.00;;;;;;;-143.84;77.75;45189.97;5072353;28;20441;-67
2022/11/04 11:13:34;;;;;;;17.27;9.93;;;;;;;-143.84;79.17;45148.09;5072179;28;20549;-67
2022/11/04 11:16:08;;;;;;;16.23;10.40;;;;;;;-143.84;78.75;45104.28;5072471;28;20435;-67
2022/11/04 11:18:37;;;;;;;15.80;8.50;;;;;;;-143.84;76.38;45108.09;5054205;28;20455;-67
2022/11/04 11:21:10;;;;;;;18.83;10.87;;;;;;;-143.84;78.99;45142.38;5072073;28;21353;-67
2022/11/04 11:23:44;;;;;;;13.07;9.07;;;;;;;-143.84;77.29;45115.72;5071910;28;20445;-67
2022/11/04 11:26:14;;;;;;;23.73;9.33;;;;;;;-143.84;76.77;45125.22;5071207;28;20579;-67
2022/11/04 11:28:49;;;;;;;17.70;9.20;;;;;;;-143.84;76.54;45130.94;5071472;28;20472;-67
2022/11/04 11:31:22;;;;;;;20.50;8.83;;;;;;;-143.84;76.80;45130.94;5072095;28;20465;-67
2022/11/04 11:33:56;;;;;;;16.03;8.43;;;;;;;-143.84;76.72;45130.94;5071530;28;20983;-67
2022/11/04 11:36:25;;;;;;;16.37;8.83;;;;;;;-143.84;76.75;45148.09;5071677;28;20451;-68
2022/11/04 11:39:04;;;;;;;13.77;8.03;;;;;;;-143.84;76.90;45117.63;5071888;28;20444;-67
2022/11/04 11:41:33;;;;;;;19.43;9.03;;;;;;;-143.84;77.14;45121.44;5071624;28;20453;-67
2022/11/04 11:44:17;;;;;;;14.53;8.10;;;;;;;-143.84;76.66;45148.09;5071590;28;20477;-67
2022/11/04 11:46:53;;;;;;;15.93;9.30;;;;;;;-143.84;77.56;45119.53;5071767;28;20438;-69
2022/11/04 11:49:27;;;;;;;14.60;9.17;;;;;;;-143.84;77.87;45119.53;5071101;28;20480;-69